This is the latest recevied weather packets stored in our database for station/object WW3TRG. If no packets are shown the sender has not sent any weather packets the latest 1 day(s).
| Time | Temp. | Humidity | Pressure | Rain* | Wind** | Luminosity | Snow |
|---|---|---|---|---|---|---|---|
| 1777996039 | 25° C | 48% | 1008.8 hPa | 0 mm | 1.34 m/s, 84° | 551 W/m² | - |
| 1777995735 | 25° C | 52% | 1008.9 hPa | 0 mm | 0 m/s | 684 W/m² | - |
| 1777995432 | 25° C | 52% | 1009.1 hPa | 0 mm | 0.45 m/s, 14° | 615 W/m² | - |
| 1777995130 | 25° C | 48% | 1009.2 hPa | 0 mm | 0 m/s | 587 W/m² | - |
| 1777994826 | 25° C | 51% | 1009.1 hPa | 0 mm | 1.34 m/s, 292° | 691 W/m² | - |
| 1777994522 | 25° C | 54% | 1009.2 hPa | 0 mm | 0 m/s | 708 W/m² | - |
| 1777994217 | 24.44° C | 52% | 1009.2 hPa | 0 mm | 1.79 m/s, 210° | 623 W/m² | - |
| 1777993915 | 24.44° C | 52% | 1009.2 hPa | 0 mm | 1.34 m/s, 172° | 619 W/m² | - |
| 1777993611 | 24.44° C | 54% | 1009.3 hPa | 0 mm | 0 m/s | 708 W/m² | - |
| 1777993308 | 24.44° C | 52% | 1009.5 hPa | 0 mm | 0 m/s | 663 W/m² | - |
| 1777993003 | 24.44° C | 54% | 1009.5 hPa | 0 mm | 1.34 m/s, 309° | 776 W/m² | - |
| 1777992703 | 23.33° C | 53% | 1009.5 hPa | 0 mm | 1.34 m/s, 176° | 686 W/m² | - |
| 1777992400 | 23.89° C | 55% | 1009.4 hPa | 0 mm | 0.89 m/s, 355° | 743 W/m² | - |
| 1777992097 | 23.89° C | 55% | 1009.6 hPa | 0 mm | 0.45 m/s, 157° | 669 W/m² | - |
| 1777991795 | 22.78° C | 55% | 1009.6 hPa | 0 mm | 2.68 m/s, 209° | 680 W/m² | - |
| 1777991492 | 22.78° C | 59% | 1009.6 hPa | 0 mm | 0 m/s | 701 W/m² | - |
| 1777991189 | 22.78° C | 60% | 1009.8 hPa | 0 mm | 1.34 m/s, 207° | 636 W/m² | - |
| 1777990886 | 21.67° C | 60% | 1009.8 hPa | 0 mm | 0.89 m/s, 143° | 664 W/m² | - |
| 1777990584 | 22.22° C | 60% | 1009.9 hPa | 0 mm | 1.79 m/s, 190° | 566 W/m² | - |
| 1777990280 | 22.22° C | 60% | 1009.9 hPa | 0 mm | 0 m/s | 580 W/m² | - |
| 1777989977 | 21.11° C | 67% | 1009.8 hPa | 0 mm | 0 m/s | 568 W/m² | - |
| 1777989674 | 21.11° C | 60% | 1009.7 hPa | 0 mm | 0 m/s | 544 W/m² | - |
| 1777989369 | 20.56° C | 62% | 1010 hPa | 0 mm | 0 m/s | 445 W/m² | - |
| 1777989067 | 21.11° C | 65% | 1010.3 hPa | 0 mm | 1.34 m/s, 162° | 528 W/m² | - |
| 1777988762 | 20.56° C | 66% | 1010.3 hPa | 0 mm | 1.79 m/s, 184° | 464 W/m² | - |
* Rain latest hour (hover to see other rain measurements)
** Current wind speed in m/s (hover to see current wind gust speed)